sensor_id;sensor_type;location;lat;lon;timestamp;P1;durP1;ratioP1;P2;durP2;ratioP2
20995;SDS011;10656;52.200;21.052;2023-08-08T00:08:06;3.13;;;2.83;;
20995;SDS011;10656;52.200;21.052;2023-08-08T00:43:38;3.90;;;2.63;;
20995;SDS011;10656;52.200;21.052;2023-08-08T01:13:31;5.17;;;2.50;;
20995;SDS011;10656;52.200;21.052;2023-08-08T01:34:27;4.67;;;2.50;;
20995;SDS011;10656;52.200;21.052;2023-08-08T02:04:45;6.23;;;2.90;;
20995;SDS011;10656;52.200;21.052;2023-08-08T02:07:24;9.03;;;2.53;;
20995;SDS011;10656;52.200;21.052;2023-08-08T02:11:58;4.70;;;2.30;;
20995;SDS011;10656;52.200;21.052;2023-08-08T02:25:06;5.33;;;2.60;;
20995;SDS011;10656;52.200;21.052;2023-08-08T03:00:27;2.97;;;2.10;;
20995;SDS011;10656;52.200;21.052;2023-08-08T03:30:26;5.67;;;2.43;;
20995;SDS011;10656;52.200;21.052;2023-08-08T03:51:25;4.03;;;1.97;;
20995;SDS011;10656;52.200;21.052;2023-08-08T04:11:24;7.33;;;2.77;;
20995;SDS011;10656;52.200;21.052;2023-08-08T04:31:52;4.30;;;2.03;;
20995;SDS011;10656;52.200;21.052;2023-08-08T04:57:10;4.13;;;2.23;;
20995;SDS011;10656;52.200;21.052;2023-08-08T05:04:21;7.80;;;2.43;;
20995;SDS011;10656;52.200;21.052;2023-08-08T05:26:39;5.00;;;2.43;;
20995;SDS011;10656;52.200;21.052;2023-08-08T05:42:04;5.60;;;2.30;;
20995;SDS011;10656;52.200;21.052;2023-08-08T06:22:30;4.27;;;2.10;;
20995;SDS011;10656;52.200;21.052;2023-08-08T06:58:13;4.17;;;2.93;;
20995;SDS011;10656;52.200;21.052;2023-08-08T07:23:24;3.73;;;2.40;;
20995;SDS011;10656;52.200;21.052;2023-08-08T08:03:53;6.20;;;2.60;;
20995;SDS011;10656;52.200;21.052;2023-08-08T08:24:15;3.07;;;1.90;;
20995;SDS011;10656;52.200;21.052;2023-08-08T08:49:45;4.13;;;2.10;;
20995;SDS011;10656;52.200;21.052;2023-08-08T08:52:23;7.50;;;2.20;;
20995;SDS011;10656;52.200;21.052;2023-08-08T09:55:18;3.63;;;1.63;;
20995;SDS011;10656;52.200;21.052;2023-08-08T10:51:24;2.17;;;1.20;;
20995;SDS011;10656;52.200;21.052;2023-08-08T10:54:23;4.40;;;1.50;;
20995;SDS011;10656;52.200;21.052;2023-08-08T11:27:01;2.53;;;1.60;;
20995;SDS011;10656;52.200;21.052;2023-08-08T11:57:24;5.03;;;1.60;;
20995;SDS011;10656;52.200;21.052;2023-08-08T12:22:42;2.08;;;1.20;;
20995;SDS011;10656;52.200;21.052;2023-08-08T12:53:04;1.27;;;1.17;;
20995;SDS011;10656;52.200;21.052;2023-08-08T13:23:49;1.42;;;1.10;;
20995;SDS011;10656;52.200;21.052;2023-08-08T13:44:02;2.40;;;1.40;;
20995;SDS011;10656;52.200;21.052;2023-08-08T13:46:54;1.50;;;1.40;;
20995;SDS011;10656;52.200;21.052;2023-08-08T14:09:13;2.43;;;1.20;;
20995;SDS011;10656;52.200;21.052;2023-08-08T14:34:08;7.47;;;1.73;;
20995;SDS011;10656;52.200;21.052;2023-08-08T15:15:10;1.38;;;1.17;;
20995;SDS011;10656;52.200;21.052;2023-08-08T15:45:15;1.80;;;1.13;;
20995;SDS011;10656;52.200;21.052;2023-08-08T16:11:03;1.40;;;1.30;;
20995;SDS011;10656;52.200;21.052;2023-08-08T16:41:27;1.63;;;1.20;;
20995;SDS011;10656;52.200;21.052;2023-08-08T17:01:55;3.90;;;1.70;;
20995;SDS011;10656;52.200;21.052;2023-08-08T17:22:02;2.40;;;1.27;;
20995;SDS011;10656;52.200;21.052;2023-08-08T17:47:29;2.83;;;1.40;;
20995;SDS011;10656;52.200;21.052;2023-08-08T17:59:15;2.30;;;1.40;;
20995;SDS011;10656;52.200;21.052;2023-08-08T18:12:13;2.83;;;2.17;;
20995;SDS011;10656;52.200;21.052;2023-08-08T19:48:49;4.33;;;2.70;;
20995;SDS011;10656;52.200;21.052;2023-08-08T20:00:30;7.97;;;3.40;;
20995;SDS011;10656;52.200;21.052;2023-08-08T20:44:28;3.13;;;2.83;;
20995;SDS011;10656;52.200;21.052;2023-08-08T21:15:27;4.53;;;3.27;;
20995;SDS011;10656;52.200;21.052;2023-08-08T21:35:45;3.07;;;2.60;;
20995;SDS011;10656;52.200;21.052;2023-08-08T22:00:52;3.47;;;3.10;;
20995;SDS011;10656;52.200;21.052;2023-08-08T22:31:06;5.27;;;3.37;;
20995;SDS011;10656;52.200;21.052;2023-08-08T22:51:34;3.67;;;2.70;;
20995;SDS011;10656;52.200;21.052;2023-08-08T23:12:00;4.10;;;3.37;;
20995;SDS011;10656;52.200;21.052;2023-08-08T23:37:00;6.00;;;3.40;;
20995;SDS011;10656;52.200;21.052;2023-08-08T23:52:34;4.43;;;3.33;;
